KDFI

Defiance Memorial Airport

Defiance, Ohio, USA
METAR KDFI 181053Z AUTO 22005KT 8SM CLR 26/23 A3001 RMK AO2 SLP156 T02560228
Observed Flight Rules
Jun-18 @ 10:53 UTC (9 minutes ago) Visual Flight Rules
Wind Visibility Clouds
220° at 5 knots 8 miles
  • Clear skies
Temperatures Readings
Current 26°C / 79°F
Dewpoint 23°C / 73°F
Humidity 84%
Altimeter 30.01" Hg
Pressure 1015.6 hPa
Elevation 219
METAR KDFI 181053Z AUTO 22005KT 8SM CLR 26/23 A3001 RMK AO2 SLP156 T02560228
Observed Flight Rules
Jun-18 @ 10:53 UTC
(9 minutes ago)
VFR
Wind Visibility
220° at 5 knots 8 miles
Clouds
  • Clear skies
Temperature Dewpoint
26°C / 79°F 23°C / 73°F
Humidity Altimeter Pressure
84% 30.01" Hg 1015.6 hPa